Time;durP1;ratioP1;P1;durP2;ratioP2;P2;SDS_P1;SDS_P2;PMS_P1;PMS_P2;Temp;Humidity;BMP_temperature;BMP_pressure;BME280_temperature;BME280_humidity;BME280_pressure;Samples;Min_cycle;Max_cycle;Signal;HPM_P1;HPM_P2
2022/03/30 00:01:09;;;;;;;;;52.75;41.75;;;;;13.81;100.00;100001.81;4988077;28;45298;-77
2022/03/30 00:03:34;;;;;;;;;55.50;43.50;;;;;13.46;100.00;99940.38;4988018;28;45161;-78
2022/03/30 00:06:00;;;;;;;;;54.00;42.00;;;;;13.59;100.00;99957.38;4987880;28;45197;-77
2022/03/30 00:08:26;;;;;;;;;50.00;39.00;;;;;13.41;100.00;99935.34;4988251;28;45137;-77
2022/03/30 00:10:52;;;;;;;;;48.75;41.50;;;;;13.77;100.00;99988.44;4988721;28;45004;-84
2022/03/30 00:13:17;;;;;;;;;57.00;43.00;;;;;13.76;100.00;99992.16;4987498;28;46045;-82
2022/03/30 00:15:44;;;;;;;;;55.75;43.75;;;;;13.40;100.00;99922.69;4988187;28;45000;-82
2022/03/30 00:18:10;;;;;;;;;54.75;40.25;;;;;12.01;100.00;99708.97;4988017;28;45158;-83
2022/03/30 00:20:35;;;;;;;;;53.25;42.25;;;;;13.43;100.00;99933.34;4970573;28;45170;-82
2022/03/30 00:23:00;;;;;;;;;48.50;40.25;;;;;13.73;100.00;99976.03;4988036;28;45417;-81
2022/03/30 00:25:26;;;;;;;;;60.00;43.25;;;;;12.87;100.00;99832.91;4987721;28;45205;-78
2022/03/30 00:27:51;;;;;;;;;58.25;46.50;;;;;13.06;100.00;99866.69;4987632;28;45288;-77
2022/03/30 00:30:19;;;;;;;;;56.00;43.75;;;;;13.71;100.00;99974.47;4987634;28;45390;-78
2022/03/30 00:32:45;;;;;;;;;57.75;46.75;;;;;13.68;100.00;99978.34;4976569;28;45394;-78
2022/03/30 00:35:14;;;;;;;;;61.50;48.00;;;;;13.65;100.00;99984.09;4987469;28;45166;-77
2022/03/30 00:37:40;;;;;;;;;51.00;41.00;;;;;13.64;100.00;99982.38;4988116;28;45150;-77
2022/03/30 00:40:09;;;;;;;;;52.25;43.75;;;;;13.62;100.00;99967.13;4987989;28;45278;-77
2022/03/30 00:42:34;;;;;;;;;58.25;45.00;;;;;11.71;100.00;99649.94;4969707;28;47907;-76
2022/03/30 00:45:10;;;;;;;;;54.00;45.75;;;;;13.12;100.00;99887.97;4987677;28;45122;-77
2022/03/30 00:47:36;;;;;;;;;53.75;44.00;;;;;13.61;100.00;99966.28;4988059;28;45205;-82
2022/03/30 00:50:03;;;;;;;;;54.25;43.25;;;;;13.61;100.00;99968.13;4988070;28;45377;-83
2022/03/30 00:52:29;;;;;;;;;60.75;48.00;;;;;13.56;100.00;99957.63;4987714;28;45481;-81
2022/03/30 00:54:57;;;;;;;;;55.25;43.50;;;;;13.12;100.00;99880.63;4988132;28;45161;-83
2022/03/30 00:57:23;;;;;;;;;57.50;47.25;;;;;13.15;100.00;99874.91;4987053;28;45233;-84
2022/03/30 00:59:50;;;;;;;;;55.50;42.75;;;;;13.38;100.00;99915.63;4986763;28;45747;-81
2022/03/30 01:02:16;;;;;;;;;56.00;44.75;;;;;13.44;100.00;99924.13;4987557;28;45821;-82
2022/03/30 01:04:41;;;;;;;;;52.75;42.00;;;;;13.58;100.00;99943.81;4986838;28;45087;-84
2022/03/30 01:07:07;;;;;;;;;56.25;46.75;;;;;13.26;100.00;99887.59;4988159;28;45353;-83
2022/03/30 01:09:32;;;;;;;;;58.50;44.25;;;;;13.31;100.00;99896.22;4987907;28;45025;-82
2022/03/30 01:11:58;;;;;;;;;61.25;46.50;;;;;13.49;100.00;99921.84;4987132;28;45910;-82
2022/03/30 01:14:24;;;;;;;;;64.00;48.50;;;;;13.22;100.00;99876.09;4969831;28;45115;-83
2022/03/30 01:16:50;;;;;;;;;53.00;43.50;;;;;12.82;100.00;99807.91;4987941;28;45011;-82
2022/03/30 01:19:16;;;;;;;;;62.25;48.00;;;;;13.17;100.00;99859.25;4986838;28;45318;-83
2022/03/30 01:21:43;;;;;;;;;53.25;44.00;;;;;13.24;100.00;99875.97;4987504;28;45552;-81
2022/03/30 01:24:10;;;;;;;;;66.25;50.00;;;;;13.44;100.00;99917.81;4987501;28;45064;-84
2022/03/30 01:26:36;;;;;;;;;58.50;46.50;;;;;13.43;100.00;99910.59;4987853;28;45047;-83
2022/03/30 01:32:25;;;;;;;;;57.75;46.75;;;;;13.23;100.00;99882.44;4987892;28;45081;-83
2022/03/30 01:34:37;;;;;;;;;56.50;46.00;;;;;13.13;100.00;99863.28;4987915;28;45680;-82
2022/03/30 01:37:03;;;;;;;;;61.00;48.00;;;;;13.39;100.00;99907.31;4993393;28;45178;-83
2022/03/30 01:39:29;;;;;;;;;54.50;43.75;;;;;13.40;100.00;99902.72;4992512;28;45205;-81
2022/03/30 01:41:55;;;;;;;;;57.75;44.00;;;;;13.38;100.00;99901.97;4993864;28;45455;-78
2022/03/30 01:44:20;;;;;;;;;56.25;43.50;;;;;12.99;100.00;99833.66;4992112;28;45186;-78
2022/03/30 01:46:46;;;;;;;;;59.50;46.50;;;;;13.38;100.00;99896.53;4977213;28;45096;-80
2022/03/30 01:49:11;;;;;;;;;61.00;48.00;;;;;13.36;100.00;99893.94;4993814;28;45179;-77
2022/03/30 01:51:36;;;;;;;;;56.50;47.50;;;;;13.16;100.00;99860.25;4991620;28;45329;-84
2022/03/30 01:54:02;;;;;;;;;60.25;48.00;;;;;12.23;100.00;99718.81;4991264;28;45264;-80
2022/03/30 01:56:27;;;;;;;;;60.00;47.00;;;;;11.75;100.00;99623.28;4989842;28;45505;-80
2022/03/30 01:58:52;;;;;;;;;59.50;49.00;;;;;12.27;100.00;99716.69;4988736;28;45504;-78
2022/03/30 02:01:18;;;;;;;;;62.75;49.75;;;;;13.08;100.00;99842.88;4990019;28;45584;-80
2022/03/30 02:03:43;;;;;;;;;64.00;49.50;;;;;12.64;100.00;99765.97;4990254;28;45138;-79
2022/03/30 02:06:09;;;;;;;;;65.25;49.50;;;;;12.96;100.00;99823.88;4989789;28;45021;-82
2022/03/30 02:08:35;;;;;;;;;59.75;47.75;;;;;12.02;100.00;99658.09;4990174;28;45018;-84
2022/03/30 02:11:00;;;;;;;;;56.25;45.75;;;;;13.34;100.00;99871.41;4990163;28;45910;-77
2022/03/30 02:13:27;;;;;;;;;55.00;45.00;;;;;13.02;100.00;99813.41;4990135;28;45242;-82
2022/03/30 02:15:52;;;;;;;;;57.25;46.75;;;;;12.65;100.00;99762.25;4989960;28;45149;-82
2022/03/30 02:18:18;;;;;;;;;60.75;47.00;;;;;12.53;100.00;99738.84;4989243;28;45301;-82
2022/03/30 02:20:43;;;;;;;;;63.25;47.00;;;;;12.70;100.00;99763.53;4989227;28;45070;-83
2022/03/30 02:23:09;;;;;;;;;56.00;46.00;;;;;13.07;100.00;99832.94;4989879;28;45300;-83
2022/03/30 02:25:35;;;;;;;;;56.00;45.50;;;;;13.28;100.00;99860.16;4989172;28;45130;-81
2022/03/30 02:28:00;;;;;;;;;54.25;42.75;;;;;13.04;100.00;99827.78;4990101;28;45181;-78
2022/03/30 02:30:25;;;;;;;;;60.75;48.50;;;;;13.06;100.00;99834.81;4989012;28;47484;-77
2022/03/30 02:32:51;;;;;;;;;54.00;44.25;;;;;12.67;100.00;99771.13;4990618;28;45346;-76
2022/03/30 02:35:18;;;;;;;;;52.75;42.25;;;;;13.22;100.00;99848.81;4989302;28;45411;-77
2022/03/30 02:37:44;;;;;;;;;54.25;44.00;;;;;13.09;100.00;99839.16;4989873;28;45545;-77
2022/03/30 02:40:09;;;;;;;;;57.00;46.50;;;;;12.08;100.00;99677.47;4988924;28;45925;-84
2022/03/30 02:42:35;;;;;;;;;57.00;45.25;;;;;13.17;100.00;99851.06;4989338;28;45198;-82
2022/03/30 02:45:01;;;;;;;;;56.50;45.50;;;;;13.17;100.00;99850.19;4989147;28;45230;-83
2022/03/30 02:50:10;;;;;;;;;61.00;47.50;;;;;11.41;100.00;99559.13;4989217;28;45101;-84
2022/03/30 02:52:35;;;;;;;;;59.25;46.75;;;;;12.96;100.00;99823.88;4989285;28;45199;-84
2022/03/30 02:55:01;;;;;;;;;56.75;47.25;;;;;12.87;100.00;99799.31;4971664;28;45784;-84
2022/03/30 02:57:26;;;;;;;;;59.75;48.00;;;;;12.96;100.00;99825.75;4989415;28;45151;-83
2022/03/30 02:59:51;;;;;;;;;56.50;47.75;;;;;12.72;100.00;99777.91;4989127;28;45305;-84
2022/03/30 03:02:17;;;;;;;;;55.75;43.75;;;;;12.54;100.00;99748.75;4989412;28;45098;-81
2022/03/30 03:04:42;;;;;;;;;61.25;46.50;;;;;12.81;100.00;99791.69;4989545;28;45125;-84
2022/03/30 03:07:08;;;;;;;;;58.75;46.25;;;;;12.12;100.00;99688.97;4990075;28;45129;-84
2022/03/30 03:09:33;;;;;;;;;68.50;51.75;;;;;13.04;100.00;99835.97;4998119;28;44895;-78
2022/03/30 03:11:58;;;;;;;;;59.50;46.75;;;;;13.03;100.00;99835.13;5002249;28;44983;-81
2022/03/30 03:14:24;;;;;;;;;61.25;49.75;;;;;12.31;100.00;99721.69;5002503;28;45539;-81
2022/03/30 03:16:49;;;;;;;;;62.25;48.75;;;;;12.66;100.00;99773.00;5001204;28;45055;-79
2022/03/30 03:19:15;;;;;;;;;61.50;48.00;;;;;12.71;100.00;99781.63;5002166;28;45678;-77
2022/03/30 03:21:40;;;;;;;;;64.00;51.25;;;;;13.05;100.00;99835.84;5000092;28;44748;-80
2022/03/30 03:24:06;;;;;;;;;65.25;49.50;;;;;12.90;100.00;99804.50;5000293;28;45086;-79
2022/03/30 03:26:31;;;;;;;;;62.75;48.00;;;;;12.89;100.00;99800.91;5000444;28;44737;-81
2022/03/30 03:28:57;;;;;;;;;65.50;51.25;;;;;12.65;100.00;99759.50;4999368;28;45333;-83
2022/03/30 03:31:22;;;;;;;;;61.00;48.25;;;;;12.66;100.00;99766.69;4980138;28;45043;-82
2022/03/30 03:33:47;;;;;;;;;59.75;47.25;;;;;12.55;100.00;99748.59;4999694;28;45087;-79
2022/03/30 03:36:13;;;;;;;;;62.50;48.75;;;;;12.22;100.00;99703.47;4982489;28;45349;-84
2022/03/30 03:38:38;;;;;;;;;59.50;47.25;;;;;13.06;100.00;99818.44;4987862;28;45915;-84
2022/03/30 03:41:04;;;;;;;;;63.75;49.00;;;;;13.00;100.00;99808.09;4988933;28;45277;-83
2022/03/30 03:43:30;;;;;;;;;64.25;48.25;;;;;13.08;100.00;99819.19;4988955;28;45964;-83
2022/03/30 03:45:55;;;;;;;;;61.75;48.50;;;;;12.86;100.00;99786.69;4988675;28;45164;-84
2022/03/30 03:48:21;;;;;;;;;71.25;52.00;;;;;12.20;100.00;99678.19;4987519;28;46010;-83
2022/03/30 03:50:46;;;;;;;;;66.50;48.50;;;;;13.06;100.00;99815.72;4988933;28;45083;-83
2022/03/30 03:53:11;;;;;;;;;58.00;46.25;;;;;12.97;100.00;99797.47;4987778;28;45169;-86
2022/03/30 03:55:37;;;;;;;;;60.75;49.00;;;;;13.06;100.00;99818.44;4988996;28;45424;-82
2022/03/30 03:58:04;;;;;;;;;62.75;49.75;;;;;12.70;100.00;99749.06;4988041;28;45524;-84
2022/03/30 04:00:30;;;;;;;;;64.00;51.00;;;;;13.06;100.00;99814.84;4988457;28;45158;-81
2022/03/30 04:02:55;;;;;;;;;58.75;45.25;;;;;12.50;100.00;99725.47;4988858;28;45290;-85
2022/03/30 04:05:21;;;;;;;;;67.25;48.00;;;;;13.03;100.00;99813.28;4988545;28;45351;-83
2022/03/30 04:07:46;;;;;;;;;63.50;49.00;;;;;13.03;100.00;99804.22;4988174;28;45650;-85
2022/03/30 04:10:12;;;;;;;;;58.75;47.75;;;;;12.70;100.00;99754.50;4988373;28;45069;-82
2022/03/30 04:12:38;;;;;;;;;60.50;47.75;;;;;12.58;100.00;99728.38;4988415;28;45240;-83
2022/03/30 04:15:05;;;;;;;;;65.25;51.25;;;;;12.10;100.00;99650.06;4988054;28;45258;-83
2022/03/30 04:17:32;;;;;;;;;65.75;52.00;;;;;13.02;100.00;99797.03;4988047;28;45198;-83
2022/03/30 04:19:57;;;;;;;;;66.25;50.25;;;;;12.94;100.00;99795.03;4988254;28;45155;-84
2022/03/30 04:22:23;;;;;;;;;62.00;47.75;;;;;12.90;100.00;99779.94;4985806;28;45217;-84
2022/03/30 04:24:49;;;;;;;;;69.25;50.00;;;;;11.18;100.00;99492.28;4988467;28;45442;-84
2022/03/30 04:27:14;;;;;;;;;66.00;51.00;;;;;12.81;100.00;99764.41;4988200;28;45273;-82
2022/03/30 04:29:39;;;;;;;;;65.00;49.75;;;;;12.89;100.00;99778.22;4987791;28;45077;-77
2022/03/30 04:32:05;;;;;;;;;65.25;52.00;;;;;12.79;100.00;99758.25;4987972;28;45197;-78
2022/03/30 04:34:31;;;;;;;;;66.25;52.75;;;;;12.32;100.00;99677.09;4988157;28;45007;-77
2022/03/30 04:36:56;;;;;;;;;62.25;50.25;;;;;12.95;100.00;99780.38;4969869;28;46972;-78
2022/03/30 04:39:21;;;;;;;;;63.25;50.75;;;;;12.62;100.00;99727.06;4987860;28;45097;-82
2022/03/30 04:41:47;;;;;;;;;64.00;49.75;;;;;12.54;100.00;99711.44;4985932;28;45250;-86
2022/03/30 04:44:12;;;;;;;;;65.25;49.50;;;;;12.72;100.00;99734.28;4987449;28;45205;-85
2022/03/30 04:46:38;;;;;;;;;66.50;51.50;;;;;12.34;100.00;99679.69;4987347;28;45347;-79
2022/03/30 04:49:05;;;;;;;;;67.25;53.75;;;;;13.04;100.00;99785.00;4987482;28;45162;-82
2022/03/30 04:51:31;;;;;;;;;67.25;52.50;;;;;12.88;100.00;99751.97;4986562;28;45027;-85
2022/03/30 04:53:56;;;;;;;;;62.75;48.25;;;;;12.89;100.00;99749.06;4988398;28;45236;-86
2022/03/30 04:56:21;;;;;;;;;70.50;51.50;;;;;11.63;100.00;99549.88;4987297;28;45141;-83
2022/03/30 04:58:49;;;;;;;;;70.00;54.75;;;;;12.46;100.00;99662.19;4987601;28;45246;-83
2022/03/30 05:01:14;;;;;;;;;67.75;51.75;;;;;12.85;100.00;99724.94;4987969;28;45324;-85
2022/03/30 05:03:39;;;;;;;;;61.75;49.00;;;;;12.35;100.00;99643.25;4988408;28;45225;-85
2022/03/30 05:06:05;;;;;;;;;63.25;51.50;;;;;12.97;100.00;99751.06;4988574;28;46620;-86
2022/03/30 05:08:30;;;;;;;;;66.75;52.25;;;;;13.00;100.00;99750.81;4987820;28;45077;-83
2022/03/30 05:10:55;;;;;;;;;63.75;49.50;;;;;13.09;100.00;99763.59;4986395;28;45118;-82
2022/03/30 05:13:21;;;;;;;;;67.00;52.00;;;;;12.71;100.00;99696.22;4973254;28;45467;-84
2022/03/30 05:15:46;;;;;;;;;66.25;51.75;;;;;13.03;100.00;99753.25;4988335;28;45361;-85
2022/03/30 05:18:11;;;;;;;;;63.75;51.75;;;;;12.64;100.00;99678.72;4992091;28;45055;-83
2022/03/30 05:20:37;;;;;;;;;69.00;51.50;;;;;13.00;100.00;99742.63;4973298;28;45041;-81
2022/03/30 05:23:03;;;;;;;;;67.00;53.75;;;;;12.30;100.00;99627.31;4992791;28;45041;-81
2022/03/30 05:25:28;;;;;;;;;65.50;52.00;;;;;12.81;100.00;99709.88;4992909;28;45229;-80
2022/03/30 05:27:54;;;;;;;;;61.25;47.50;;;;;12.57;100.00;99688.44;4996002;28;45112;-81
2022/03/30 05:30:20;;;;;;;;;65.25;52.25;;;;;13.13;100.00;99765.03;4977531;28;45386;-84
2022/03/30 05:32:45;;;;;;;;;69.25;51.25;;;;;13.14;100.00;99769.50;4993790;28;45269;-83
2022/03/30 05:35:12;;;;;;;;;61.25;49.25;;;;;12.79;100.00;99703.72;4993725;28;45488;-76
2022/03/30 05:37:37;;;;;;;;;61.25;49.50;;;;;12.94;100.00;99754.97;4993026;28;45149;-79
2022/03/30 05:40:04;;;;;;;;;66.25;50.75;;;;;13.09;100.00;99766.31;4992064;28;45176;-78
2022/03/30 05:42:30;;;;;;;;;68.25;53.50;;;;;13.10;100.00;99772.66;4992670;28;45267;-78
2022/03/30 05:44:55;;;;;;;;;69.00;52.00;;;;;13.02;100.00;99756.09;4996277;28;45729;-80
2022/03/30 05:47:21;;;;;;;;;63.50;51.25;;;;;13.11;100.00;99774.34;4990722;28;45684;-78
2022/03/30 05:49:46;;;;;;;;;68.75;52.00;;;;;12.24;100.00;99635.19;4991413;28;45157;-78
2022/03/30 05:52:12;;;;;;;;;63.75;52.00;;;;;13.07;100.00;99770.19;4989758;28;45359;-75
2022/03/30 05:54:37;;;;;;;;;68.00;52.25;;;;;13.06;100.00;99769.31;4989891;28;45707;-75
2022/03/30 05:57:05;;;;;;;;;67.00;51.00;;;;;13.07;100.00;99778.38;4990632;28;45090;-75
2022/03/30 05:59:37;;;;;;;;;66.25;53.25;;;;;13.06;100.00;99779.38;4985359;28;45505;-78
2022/03/30 06:02:04;;;;;;;;;68.00;54.75;;;;;12.63;100.00;99716.03;4990187;28;45145;-77
2022/03/30 06:04:29;;;;;;;;;67.00;51.00;;;;;12.50;100.00;99692.75;4990231;28;46060;-76
2022/03/30 06:06:55;;;;;;;;;70.75;56.00;;;;;13.03;100.00;99790.56;4990089;28;45260;-77
2022/03/30 06:09:21;;;;;;;;;69.00;53.75;;;;;12.75;100.00;99738.56;4991040;28;45347;-83
2022/03/30 06:11:47;;;;;;;;;70.25;53.25;;;;;12.97;100.00;99786.53;4990467;28;45046;-77
2022/03/30 06:14:16;;;;;;;;;70.75;53.00;;;;;12.84;100.00;99772.34;4990086;28;45783;-77
2022/03/30 06:16:42;;;;;;;;;70.50;53.75;;;;;12.84;100.00;99773.19;4987707;28;45428;-84
2022/03/30 06:19:10;;;;;;;;;66.50;53.00;;;;;12.79;100.00;99761.00;4988751;28;45178;-74
2022/03/30 06:21:35;;;;;;;;;69.00;54.50;;;;;12.77;100.00;99763.84;4989356;28;45102;-77
2022/03/30 06:24:01;;;;;;;;;67.50;52.25;;;;;12.30;100.00;99686.41;4971563;28;47716;-76
2022/03/30 06:26:27;;;;;;;;;67.25;52.25;;;;;12.94;100.00;99795.03;4986770;28;45227;-75
2022/03/30 06:28:53;;;;;;;;;66.75;52.00;;;;;12.93;100.00;99801.50;4986602;28;45156;-75
2022/03/30 06:31:19;;;;;;;;;71.50;55.25;;;;;12.90;100.00;99799.03;4984314;28;45273;-75
2022/03/30 06:33:45;;;;;;;;;65.00;52.75;;;;;12.29;100.00;99693.72;4982664;28;46055;-77
2022/03/30 06:36:11;;;;;;;;;69.50;55.00;;;;;12.82;100.00;99785.22;4984863;28;45320;-79
2022/03/30 06:38:36;;;;;;;;;66.00;51.50;;;;;12.32;100.00;99700.78;4986577;28;45219;-74
2022/03/30 06:41:03;;;;;;;;;67.00;53.75;;;;;12.90;100.00;99802.63;4983342;28;45323;-75
2022/03/30 06:43:28;;;;;;;;;69.25;54.25;;;;;12.44;100.00;99718.72;4983528;28;45744;-76
2022/03/30 06:45:54;;;;;;;;;73.00;57.50;;;;;12.81;100.00;99787.09;4982971;28;45216;-75
2022/03/30 06:48:19;;;;;;;;;72.25;56.00;;;;;12.87;100.00;99797.44;4986031;28;45296;-75
2022/03/30 06:50:44;;;;;;;;;71.50;54.75;;;;;12.87;100.00;99799.31;4984410;28;45248;-75
2022/03/30 06:53:10;;;;;;;;;65.25;52.00;;;;;12.87;100.00;99808.34;4987215;28;46016;-74
2022/03/30 06:55:38;;;;;;;;;66.00;52.25;;;;;12.86;100.00;99803.91;4968040;28;45075;-76
2022/03/30 06:58:04;;;;;;;;;64.75;51.00;;;;;12.86;100.00;99803.91;4984902;28;46362;-75
2022/03/30 07:00:29;;;;;;;;;66.25;50.75;;;;;12.83;100.00;99806.06;4989437;28;44979;-76
2022/03/30 07:02:55;;;;;;;;;72.75;55.75;;;;;12.81;100.00;99808.94;4971327;28;45665;-76
2022/03/30 07:05:20;;;;;;;;;67.50;53.25;;;;;12.82;100.00;99805.19;4989427;28;45115;-77
2022/03/30 07:10:31;;;;;;;;;66.50;51.75;;;;;12.81;100.00;99803.47;4988122;28;45292;-75
2022/03/30 07:12:57;;;;;;;;;71.50;53.75;;;;;12.45;100.00;99754.00;4988278;28;45955;-75
2022/03/30 07:15:22;;;;;;;;;68.75;52.00;;;;;12.11;100.00;99703.56;4986851;28;45343;-75
2022/03/30 07:17:49;;;;;;;;;59.75;49.00;;;;;12.72;100.00;99805.19;4987959;28;45651;-76
2022/03/30 07:20:15;;;;;;;;;64.25;50.25;;;;;12.36;100.00;99754.84;4988655;28;45058;-80
2022/03/30 07:22:42;;;;;;;;;72.50;53.50;;;;;12.67;100.00;99809.31;4988193;28;45585;-75
2022/03/30 07:25:09;;;;;;;;;66.50;52.25;;;;;12.59;100.00;99792.81;4989247;28;45613;-76
2022/03/30 07:27:38;;;;;;;;;70.75;53.75;;;;;12.65;100.00;99809.47;4989310;28;45342;-75
2022/03/30 07:30:06;;;;;;;;;65.50;51.00;;;;;12.48;100.00;99782.88;4989250;28;45355;-76
2022/03/30 07:32:31;;;;;;;;;67.25;54.00;;;;;12.45;100.00;99781.28;4989656;28;46039;-75
2022/03/30 07:34:56;;;;;;;;;67.25;51.25;;;;;12.59;100.00;99809.16;4988636;28;45189;-75
2022/03/30 07:37:22;;;;;;;;;65.00;51.00;;;;;12.52;100.00;99807.97;4989844;28;45039;-79
2022/03/30 07:39:48;;;;;;;;;65.50;52.50;;;;;11.49;100.00;99647.38;4989888;28;44945;-76
2022/03/30 07:42:13;;;;;;;;;72.25;54.00;;;;;12.10;100.00;99765.38;4989615;28;45339;-77
2022/03/30 07:44:39;;;;;;;;;70.00;52.00;;;;;11.44;100.00;99656.81;4970237;28;45414;-77
2022/03/30 07:47:05;;;;;;;;;71.00;54.50;;;;;12.31;100.00;99811.63;4989270;28;45061;-77
2022/03/30 07:49:30;;;;;;;;;69.75;52.50;;;;;11.73;100.00;99721.44;4987042;28;45046;-76
2022/03/30 07:51:56;;;;;;;;;71.25;52.00;;;;;12.10;100.00;99794.47;4988451;28;45700;-77
2022/03/30 07:54:21;;;;;;;;;68.25;51.50;;;;;11.88;100.00;99771.00;4989041;28;45033;-76
2022/03/30 07:56:46;;;;;;;;;71.50;53.75;;;;;11.75;100.00;99748.53;4988633;28;45202;-76
2022/03/30 07:59:13;;;;;;;;;75.25;56.25;;;;;11.65;100.00;99760.22;4970958;28;45215;-75
2022/03/30 08:01:38;;;;;;;;;69.00;53.75;;;;;11.90;100.00;99793.50;4986569;28;47232;-77
2022/03/30 08:04:04;;;;;;;;;70.00;53.75;;;;;12.02;100.00;99818.81;4988371;28;44972;-78
2022/03/30 08:06:29;;;;;;;;;68.75;55.00;;;;;11.59;100.00;99749.88;4988387;28;45092;-76
2022/03/30 08:08:54;;;;;;;;;71.00;55.00;;;;;11.93;100.00;99823.22;4988555;28;45240;-78
2022/03/30 08:11:21;;;;;;;;;64.75;52.25;;;;;11.73;100.00;99794.09;4989032;28;45797;-75
2022/03/30 08:13:46;;;;;;;;;73.00;56.25;;;;;11.85;100.00;99825.72;4988647;28;45245;-77
2022/03/30 08:16:11;;;;;;;;;73.50;53.50;;;;;11.85;100.00;99833.91;4988891;28;45118;-76
2022/03/30 08:18:37;;;;;;;;;69.25;56.00;;;;;11.80;100.00;99828.81;4988706;28;45625;-76
2022/03/30 08:23:46;;;;;;;;;75.25;60.50;;;;;11.61;100.00;99806.94;4988341;28;45181;-76
2022/03/30 08:26:11;;;;;;;;;68.00;51.75;;;;;11.46;100.00;99781.03;4988355;28;45525;-76
2022/03/30 08:28:37;;;;;;;;;70.50;55.00;;;;;11.68;100.00;99829.88;4986559;28;45206;-76
2022/03/30 08:31:02;;;;;;;;;72.75;56.00;;;;;11.35;100.00;99781.94;4988204;28;45471;-76
2022/03/30 08:33:28;;;;;;;;;71.75;53.50;;;;;11.67;100.00;99830.91;4988125;28;45246;-77
2022/03/30 08:35:54;;;;;;;;;82.50;62.75;;;;;11.47;100.00;99796.38;4970612;28;45168;-77
2022/03/30 08:38:20;;;;;;;;;72.75;56.50;;;;;11.64;100.00;99829.28;4988054;28;45124;-76
2022/03/30 08:40:46;;;;;;;;;80.50;59.25;;;;;10.87;100.00;99707.13;4970117;28;46787;-76
2022/03/30 08:43:11;;;;;;;;;76.50;59.50;;;;;11.05;100.00;99742.78;4987971;28;45103;-76
2022/03/30 08:45:38;;;;;;;;;77.25;61.50;;;;;11.59;100.00;99834.25;4989483;28;45139;-77
2022/03/30 08:48:04;;;;;;;;;73.75;59.00;;;;;11.59;100.00;99826.09;4991315;28;45230;-75
2022/03/30 08:50:30;;;;;;;;;78.50;61.25;;;;;11.61;100.00;99823.25;4991507;28;45305;-76
2022/03/30 08:53:02;;;;;;;;;73.50;56.75;;;;;11.57;100.00;99828.09;4973175;28;45205;-78
2022/03/30 08:55:27;;;;;;;;;73.00;57.00;;;;;11.54;100.00;99822.03;4991159;28;45239;-76
2022/03/30 08:57:52;;;;;;;;;80.50;59.50;;;;;11.48;100.00;99814.41;4991474;28;45234;-76
2022/03/30 09:00:20;;;;;;;;;81.50;67.00;;;;;11.35;100.00;99804.59;4990869;28;45145;-79
2022/03/30 09:02:52;;;;;;;;;78.75;58.25;;;;;11.49;100.00;99829.75;4991096;28;45307;-77
2022/03/30 09:05:19;;;;;;;;;76.00;56.75;;;;;11.44;100.00;99817.38;4991103;28;45379;-78
2022/03/30 09:07:48;;;;;;;;;77.50;58.50;;;;;11.41;100.00;99814.09;4990917;28;45055;-76
2022/03/30 09:10:16;;;;;;;;;77.75;58.50;;;;;11.20;100.00;99792.25;4990825;28;45147;-78
2022/03/30 09:12:43;;;;;;;;;80.00;58.75;;;;;10.71;100.00;99711.28;4991109;28;45188;-76
2022/03/30 09:15:09;;;;;;;;;74.00;57.50;;;;;11.00;100.00;99766.78;4991555;28;45100;-79
2022/03/30 09:17:39;;;;;;;;;71.75;56.50;;;;;11.37;100.00;99829.81;4991092;28;45008;-77
2022/03/30 09:20:07;;;;;;;;;79.00;61.00;;;;;11.40;100.00;99826.84;4991033;28;45819;-76
2022/03/30 09:22:33;;;;;;;;;77.25;58.50;;;;;11.29;100.00;99812.38;4991822;28;45174;-77
2022/03/30 09:25:02;;;;;;;;;78.25;57.75;;;;;11.42;100.00;99830.28;4992934;28;45053;-76
2022/03/30 09:27:28;;;;;;;;;78.75;61.50;;;;;11.45;100.00;99837.28;4992792;28;45237;-76
2022/03/30 09:29:54;;;;;;;;;74.75;56.25;;;;;11.44;100.00;99828.28;4993966;28;45909;-77
2022/03/30 09:32:20;;;;;;;;;83.25;67.00;;;;;11.46;100.00;99824.59;4992265;28;45070;-77
2022/03/30 09:34:53;;;;;;;;;69.75;55.25;;;;;11.47;100.00;99823.59;4993539;28;44996;-78
2022/03/30 09:37:19;;;;;;;;;78.50;59.25;;;;;11.49;100.00;99829.75;4993467;28;45096;-76
2022/03/30 09:39:44;;;;;;;;;81.50;66.75;;;;;11.42;100.00;99818.53;4991932;28;45958;-76
2022/03/30 09:42:11;;;;;;;;;76.75;58.25;;;;;11.44;100.00;99813.81;4973504;28;45231;-77
2022/03/30 09:44:51;;;;;;;;;73.25;58.25;;;;;11.52;100.00;99830.34;4990802;28;45197;-78
2022/03/30 09:47:18;;;;;;;;;77.25;58.00;;;;;11.53;100.00;99823.91;4978998;28;45157;-76
2022/03/30 09:49:54;;;;;;;;;76.75;60.50;;;;;11.58;100.00;99832.53;4990530;28;45760;-77
2022/03/30 09:52:29;;;;;;;;;79.50;64.75;;;;;11.63;100.00;99829.44;4990792;28;45137;-76
2022/03/30 09:54:57;;;;;;;;;81.75;64.25;;;;;11.65;100.00;99827.41;4990309;28;45156;-77
2022/03/30 09:57:38;;;;;;;;;79.00;59.50;;;;;11.63;100.00;99811.22;4990261;28;45101;-78
2022/03/30 10:00:09;;;;;;;;;81.75;66.75;;;;;11.71;100.00;99821.47;4990491;28;45473;-75
2022/03/30 10:02:39;;;;;;;;;77.75;60.00;;;;;11.63;100.00;99811.22;4990640;28;45058;-76
2022/03/30 10:05:06;;;;;;;;;79.75;57.00;;;;;11.75;100.00;99822.91;4989813;28;45276;-76
2022/03/30 10:07:32;;;;;;;;;81.50;64.50;;;;;11.62;100.00;99804.06;4990033;28;45213;-77
2022/03/30 10:09:58;;;;;;;;;79.75;63.25;;;;;11.40;100.00;99766.97;4990369;28;45122;-76
2022/03/30 10:12:26;;;;;;;;;76.25;58.00;;;;;11.66;100.00;99800.09;4990159;28;45067;-75
2022/03/30 10:14:53;;;;;;;;;74.00;58.25;;;;;11.78;100.00;99821.78;4990515;28;45217;-78
2022/03/30 10:17:19;;;;;;;;;81.75;63.25;;;;;11.78;100.00;99813.63;4989546;28;45269;-76
2022/03/30 10:19:46;;;;;;;;;77.50;60.25;;;;;11.83;100.00;99819.56;4989826;28;45510;-76
2022/03/30 10:22:30;;;;;;;;;82.50;68.25;;;;;11.88;100.00;99811.84;4989663;28;45204;-78
2022/03/30 10:25:14;;;;;;;;;81.00;63.25;;;;;11.94;100.00;99808.59;4988786;28;45215;-78
2022/03/30 10:28:10;;;;;;;;;78.25;58.25;;;;;11.96;100.00;99809.31;4989785;28;45108;-81
2022/03/30 10:30:36;;;;;;;;;80.50;62.75;;;;;11.98;100.00;99806.47;4990370;28;45532;-76
2022/03/30 10:33:03;;;;;;;;;74.00;59.50;;;;;11.42;100.00;99715.09;4989865;28;45205;-75
2022/03/30 10:35:46;;;;;;;;;73.50;55.50;;;;;11.98;100.00;99807.31;4990027;28;44984;-76
2022/03/30 10:38:12;;;;;;;;;76.75;57.50;;;;;11.76;100.00;99758.41;4991004;28;45168;-76
2022/03/30 10:40:40;;;;;;;;;78.50;58.00;;;;;12.05;100.00;99802.19;4991376;28;45432;-78
2022/03/30 10:43:06;;;;;;;;;75.25;58.25;;;;;11.98;100.00;99787.41;4990688;28;45204;-78
2022/03/30 10:45:56;;;;;;;;;74.75;56.75;;;;;12.05;100.00;99792.16;4990863;28;45124;-77
2022/03/30 10:48:30;;;;;;;;;77.50;57.75;;;;;12.11;100.00;99793.47;4990028;28;45164;-76
2022/03/30 10:51:14;;;;;;;;;82.00;64.25;;;;;11.88;100.00;99749.22;4990005;28;45007;-79
2022/03/30 10:53:50;;;;;;;;;78.00;60.50;;;;;12.18;100.00;99783.75;4989533;28;45014;-76
2022/03/30 10:56:15;;;;;;;;;70.25;55.25;;;;;12.22;100.00;99781.63;4989092;28;45031;-75
2022/03/30 10:58:52;;;;;;;;;78.50;58.25;;;;;12.24;100.00;99776.91;4989137;28;45206;-76
2022/03/30 11:01:23;;;;;;;;;80.50;61.00;;;;;12.11;100.00;99755.31;4988624;28;45792;-80
2022/03/30 11:04:13;;;;;;;;;74.25;59.00;;;;;12.27;100.00;99771.19;4986755;28;45118;-85
2022/03/30 11:06:40;;;;;;;;;78.00;58.00;;;;;11.79;100.00;99680.03;4989447;28;45127;-79
2022/03/30 11:09:07;;;;;;;;;70.00;55.00;;;;;12.27;100.00;99769.31;4989541;28;45325;-82
2022/03/30 11:11:43;;;;;;;;;71.50;55.75;;;;;12.27;100.00;99765.75;4989352;28;45381;-80
